createdAt,value
2023-02-04T00:00:01.041Z,100633.00
2023-02-04T00:02:28.435Z,100651.00
2023-02-04T00:04:55.784Z,100663.00
2023-02-04T00:07:23.747Z,100665.00
2023-02-04T00:09:51.054Z,100677.00
2023-02-04T00:12:18.442Z,100678.00
2023-02-04T00:14:45.767Z,100695.00
2023-02-04T00:17:13.098Z,100729.00
2023-02-04T00:19:40.856Z,100738.00
2023-02-04T00:22:08.796Z,100739.00
2023-02-04T00:24:37.421Z,100739.00
2023-02-04T00:27:05.678Z,100760.00
2023-02-04T00:29:33.029Z,100779.00
2023-02-04T00:32:00.454Z,100772.00
2023-02-04T00:34:27.937Z,100773.00
2023-02-04T00:36:55.238Z,100764.00
2023-02-04T00:39:22.777Z,100771.00
2023-02-04T00:41:50.733Z,100782.00
2023-02-04T00:44:18.025Z,100790.00
2023-02-04T00:46:45.376Z,100811.00
2023-02-04T00:49:12.665Z,100812.00
2023-02-04T00:51:43.674Z,100832.00
2023-02-04T00:54:10.939Z,100843.00
2023-02-04T00:56:38.203Z,100845.00
2023-02-04T00:59:06.147Z,100862.00
2023-02-04T01:01:33.415Z,100851.00
2023-02-04T01:04:00.706Z,100866.00
2023-02-04T01:06:28.031Z,100859.00
2023-02-04T01:08:55.345Z,100857.00
2023-02-04T01:11:22.654Z,100870.00
2023-02-04T01:13:49.931Z,100877.00
2023-02-04T01:16:17.941Z,100885.00
2023-02-04T01:18:45.344Z,100898.00
2023-02-04T01:21:13.244Z,100904.00
2023-02-04T01:23:40.569Z,100911.00
2023-02-04T01:26:08.024Z,100910.00
2023-02-04T01:28:35.524Z,100922.00
2023-02-04T01:31:02.872Z,100929.00
2023-02-04T01:33:30.798Z,100935.00
2023-02-04T01:35:58.085Z,100926.00
2023-02-04T01:38:25.360Z,100948.00
2023-02-04T01:40:53.175Z,100962.00
2023-02-04T01:43:22.461Z,100953.00
2023-02-04T01:45:50.430Z,100969.00
2023-02-04T01:48:20.431Z,100984.00
2023-02-04T01:50:49.643Z,100994.00
2023-02-04T01:53:20.108Z,101001.00
2023-02-04T01:55:47.773Z,101017.00
2023-02-04T01:58:15.720Z,101026.00
2023-02-04T02:00:43.081Z,101037.00
2023-02-04T02:03:11.373Z,101044.00
2023-02-04T02:05:43.003Z,101032.00
2023-02-04T02:08:12.395Z,101050.00
2023-02-04T02:10:41.695Z,101059.00
2023-02-04T02:13:12.019Z,101074.00
2023-02-04T02:15:39.413Z,101096.00
2023-02-04T02:18:07.660Z,101091.00
2023-02-04T02:20:35.291Z,101099.00
2023-02-04T02:23:11.285Z,101106.00
2023-02-04T02:25:39.821Z,101123.00
2023-02-04T02:28:12.159Z,101145.00
2023-02-04T02:30:39.727Z,101143.00
2023-02-04T02:33:07.390Z,101146.00
2023-02-04T02:35:34.820Z,101150.00
2023-02-04T02:38:02.098Z,101157.00
2023-02-04T02:40:29.642Z,101147.00
2023-02-04T02:42:57.817Z,101159.00
2023-02-04T02:45:28.160Z,101159.00
2023-02-04T02:47:57.932Z,101164.00
2023-02-04T02:50:27.483Z,101173.00
2023-02-04T02:52:55.091Z,101169.00
2023-02-04T02:55:24.515Z,101178.00
2023-02-04T02:57:53.259Z,101180.00
2023-02-04T03:00:24.314Z,101188.00
2023-02-04T03:03:06.496Z,101206.00
2023-02-04T03:05:38.659Z,101219.00
2023-02-04T03:08:06.775Z,101224.00
2023-02-04T03:10:34.500Z,101236.00
2023-02-04T03:13:02.226Z,101235.00
2023-02-04T03:15:30.939Z,101251.00
2023-02-04T03:17:58.933Z,101263.00
2023-02-04T03:20:28.498Z,101262.00
2023-02-04T03:22:56.706Z,101261.00
2023-02-04T03:25:25.797Z,101270.00
2023-02-04T03:27:53.737Z,101292.00
2023-02-04T03:30:21.585Z,101300.00
2023-02-04T03:32:49.795Z,101300.00
2023-02-04T03:35:17.687Z,101307.00
2023-02-04T03:37:44.961Z,101313.00
2023-02-04T03:40:12.923Z,101326.00
2023-02-04T03:42:40.359Z,101333.00
2023-02-04T03:45:08.512Z,101344.00
2023-02-04T03:47:35.780Z,101347.00
2023-02-04T03:50:04.282Z,101363.00
2023-02-04T03:52:31.600Z,101364.00
2023-02-04T03:54:58.872Z,101376.00
2023-02-04T03:57:26.201Z,101399.00
2023-02-04T03:59:53.487Z,101399.00
2023-02-04T04:02:20.763Z,101409.00
2023-02-04T04:04:48.041Z,101410.00
2023-02-04T04:07:16.072Z,101420.00
2023-02-04T04:09:43.324Z,101432.00
2023-02-04T04:12:10.595Z,101441.00
2023-02-04T04:14:37.876Z,101440.00
2023-02-04T04:17:05.160Z,101446.00
2023-02-04T04:19:32.498Z,101454.00
2023-02-04T04:21:59.851Z,101473.00
2023-02-04T04:24:27.832Z,101458.00
2023-02-04T04:26:55.115Z,101474.00
2023-02-04T04:29:22.398Z,101476.00
2023-02-04T04:31:49.783Z,101488.00
2023-02-04T04:34:17.134Z,101491.00
2023-02-04T04:36:44.594Z,101478.00
2023-02-04T04:39:12.567Z,101499.00
2023-02-04T04:41:40.582Z,101500.00
2023-02-04T04:44:07.957Z,101510.00
2023-02-04T04:46:35.272Z,101511.00
2023-02-04T04:49:02.608Z,101511.00
2023-02-04T04:51:31.741Z,101524.00
2023-02-04T04:53:59.224Z,101525.00
2023-02-04T04:56:26.696Z,101539.00
2023-02-04T04:58:54.694Z,101554.00
2023-02-04T05:01:22.209Z,101541.00
2023-02-04T05:03:49.587Z,101571.00
2023-02-04T05:06:16.854Z,101569.00
2023-02-04T05:08:44.165Z,101570.00
2023-02-04T05:11:11.429Z,101576.00
2023-02-04T05:13:38.754Z,101573.00
2023-02-04T05:16:07.247Z,101583.00
2023-02-04T05:18:34.650Z,101591.00
2023-02-04T05:21:01.890Z,101591.00
2023-02-04T05:23:29.164Z,101604.00
2023-02-04T05:25:56.433Z,101617.00
2023-02-04T05:28:23.854Z,101632.00
2023-02-04T05:30:52.753Z,101626.00
2023-02-04T05:33:20.756Z,101646.00
2023-02-04T05:35:49.848Z,101632.00
2023-02-04T05:38:17.273Z,101649.00
2023-02-04T05:40:44.511Z,101645.00
2023-02-04T05:43:11.784Z,101657.00
2023-02-04T05:45:39.096Z,101656.00
2023-02-04T05:48:06.604Z,101662.00
2023-02-04T05:50:34.677Z,101662.00
2023-02-04T05:53:02.069Z,101673.00
2023-02-04T05:55:29.470Z,101682.00
2023-02-04T05:57:56.750Z,101694.00
2023-02-04T06:00:24.171Z,101693.00
2023-02-04T06:02:51.492Z,101705.00
2023-02-04T06:05:18.825Z,101707.00
2023-02-04T06:07:46.785Z,101720.00
2023-02-04T06:10:14.185Z,101718.00
2023-02-04T06:12:41.466Z,101723.00
2023-02-04T06:15:10.159Z,101727.00
2023-02-04T06:17:37.457Z,101736.00
2023-02-04T06:20:06.171Z,101745.00
2023-02-04T06:22:33.650Z,101731.00
2023-02-04T06:25:01.597Z,101756.00
2023-02-04T06:27:28.870Z,101745.00
2023-02-04T06:29:56.616Z,101752.00
2023-02-04T06:32:24.202Z,101759.00
2023-02-04T06:34:52.201Z,101779.00
2023-02-04T06:37:19.659Z,101783.00
2023-02-04T06:39:46.953Z,101785.00
2023-02-04T06:42:14.951Z,101785.00
2023-02-04T06:44:42.174Z,101792.00
2023-02-04T06:47:09.538Z,101807.00
2023-02-04T06:49:36.836Z,101803.00
2023-02-04T06:52:04.995Z,101808.00
2023-02-04T06:54:32.272Z,101823.00
2023-02-04T06:57:05.903Z,101817.00
2023-02-04T06:59:34.251Z,101824.00
2023-02-04T07:02:01.776Z,101829.00
2023-02-04T07:04:29.481Z,101834.00
2023-02-04T07:06:56.894Z,101824.00
2023-02-04T07:09:24.643Z,101826.00
2023-02-04T07:11:52.074Z,101826.00
2023-02-04T07:14:19.390Z,101828.00
2023-02-04T07:16:47.355Z,101825.00
2023-02-04T07:19:15.001Z,101825.00
2023-02-04T07:21:42.292Z,101830.00
2023-02-04T07:24:09.578Z,101834.00
2023-02-04T07:26:37.068Z,101846.00
2023-02-04T07:29:05.850Z,101839.00
2023-02-04T07:31:34.458Z,101838.00
2023-02-04T07:34:02.472Z,101847.00
2023-02-04T07:36:29.840Z,101853.00
2023-02-04T07:38:57.398Z,101865.00
2023-02-04T07:41:24.706Z,101872.00
2023-02-04T07:43:51.931Z,101876.00
2023-02-04T07:46:19.300Z,101879.00
2023-02-04T07:48:46.595Z,101888.00
2023-02-04T07:51:20.159Z,101888.00
2023-02-04T07:53:55.645Z,101877.00
2023-02-04T07:56:33.608Z,101890.00
2023-02-04T07:59:01.161Z,101891.00
2023-02-04T08:01:31.461Z,101900.00
2023-02-04T08:03:58.858Z,101912.00
2023-02-04T08:06:27.212Z,101910.00
2023-02-04T08:08:54.956Z,101914.00
2023-02-04T08:11:22.348Z,101920.00
2023-02-04T08:13:49.659Z,101921.00
2023-02-04T08:16:17.038Z,101927.00
2023-02-04T08:18:44.228Z,101937.00
2023-02-04T08:21:11.693Z,101944.00
2023-02-04T08:23:41.136Z,101944.00
2023-02-04T08:26:10.500Z,101951.00
2023-02-04T08:28:38.221Z,101961.00
2023-02-04T08:31:06.801Z,101965.00
2023-02-04T08:33:34.239Z,101981.00
2023-02-04T08:36:01.774Z,101976.00
2023-02-04T08:38:29.421Z,101982.00
2023-02-04T08:40:59.333Z,101983.00
2023-02-04T08:43:26.889Z,101991.00
2023-02-04T08:45:54.423Z,102000.00
2023-02-04T08:48:21.751Z,101990.00
2023-02-04T08:50:49.065Z,102000.00
2023-02-04T08:53:16.330Z,102010.00
2023-02-04T08:55:43.947Z,102003.00
2023-02-04T08:58:12.088Z,102012.00
2023-02-04T09:00:39.668Z,102018.00
2023-02-04T09:03:07.180Z,102022.00
2023-02-04T09:05:34.561Z,102023.00
2023-02-04T09:08:01.826Z,102026.00
2023-02-04T09:10:29.122Z,102028.00
2023-02-04T09:12:56.577Z,102045.00
2023-02-04T09:15:25.308Z,102035.00
2023-02-04T09:17:54.943Z,102042.00
2023-02-04T09:20:22.506Z,102049.00
2023-02-04T09:22:49.860Z,102039.00
2023-02-04T09:25:17.295Z,102041.00
2023-02-04T09:27:44.810Z,102047.00
2023-02-04T09:30:13.453Z,102053.00
2023-02-04T09:32:41.602Z,102048.00
2023-02-04T09:35:08.904Z,102051.00
2023-02-04T09:37:36.196Z,102059.00
2023-02-04T09:40:03.767Z,102059.00
2023-02-04T09:42:31.120Z,102071.00
2023-02-04T09:45:00.055Z,102074.00
2023-02-04T09:47:28.041Z,102078.00
2023-02-04T09:49:56.199Z,102081.00
2023-02-04T09:52:24.197Z,102090.00
2023-02-04T09:54:51.648Z,102099.00
2023-02-04T09:57:20.371Z,102097.00
2023-02-04T09:59:55.728Z,102093.00
2023-02-04T10:02:24.712Z,102094.00
2023-02-04T10:04:56.798Z,102099.00
2023-02-04T10:07:26.712Z,102106.00
2023-02-04T10:09:54.778Z,102115.00
2023-02-04T10:12:23.066Z,102103.00
2023-02-04T10:14:51.340Z,102109.00
2023-02-04T10:17:24.197Z,102112.00
2023-02-04T10:19:52.383Z,102126.00
2023-02-04T10:22:21.676Z,102115.00
2023-02-04T10:24:49.979Z,102125.00
2023-02-04T10:27:17.341Z,102129.00
2023-02-04T10:29:56.384Z,102131.00
2023-02-04T10:32:28.492Z,102131.00
2023-02-04T10:35:00.691Z,102113.00
2023-02-04T10:37:28.920Z,102126.00
2023-02-04T10:39:57.197Z,102128.00
2023-02-04T10:42:26.529Z,102125.00
2023-02-04T10:44:53.984Z,102133.00
2023-02-04T10:47:23.598Z,102132.00
2023-02-04T10:49:56.330Z,102125.00
2023-02-04T10:52:30.309Z,102122.00
2023-02-04T10:54:58.096Z,102127.00
2023-02-04T10:57:28.506Z,102120.00
2023-02-04T10:59:58.193Z,102121.00
2023-02-04T11:02:36.983Z,102130.00
2023-02-04T11:05:09.675Z,102133.00
2023-02-04T11:07:36.958Z,102121.00
2023-02-04T11:10:05.602Z,102119.00
2023-02-04T11:12:42.487Z,102112.00
2023-02-04T11:15:39.019Z,102118.00
2023-02-04T11:18:08.446Z,102118.00
2023-02-04T11:20:39.170Z,102126.00
2023-02-04T11:23:29.252Z,102133.00
2023-02-04T11:26:13.293Z,102133.00
2023-02-04T11:28:47.479Z,102136.00
2023-02-04T11:31:27.068Z,102148.00
2023-02-04T11:34:13.272Z,102147.00
2023-02-04T11:37:04.493Z,102146.00
2023-02-04T11:39:35.729Z,102144.00
2023-02-04T11:42:04.838Z,102143.00
2023-02-04T11:44:33.447Z,102151.00
2023-02-04T11:47:02.167Z,102157.00
2023-02-04T11:49:30.257Z,102163.00
2023-02-04T11:52:08.042Z,102164.00
2023-02-04T11:54:36.002Z,102165.00
2023-02-04T11:57:05.334Z,102165.00
2023-02-04T11:59:33.047Z,102165.00
2023-02-04T12:02:15.705Z,102159.00
2023-02-04T12:04:52.659Z,102157.00
2023-02-04T12:07:24.597Z,102165.00
2023-02-04T12:09:51.918Z,102171.00
2023-02-04T12:12:29.657Z,102180.00
2023-02-04T12:15:08.851Z,102184.00
2023-02-04T12:17:36.470Z,102180.00
2023-02-04T12:20:04.148Z,102183.00
2023-02-04T12:22:31.482Z,102181.00
2023-02-04T12:24:58.958Z,102183.00
2023-02-04T12:27:27.395Z,102185.00
2023-02-04T12:29:55.107Z,102182.00
2023-02-04T12:32:22.471Z,102178.00
2023-02-04T12:34:49.726Z,102186.00
2023-02-04T12:37:17.182Z,102179.00
2023-02-04T12:39:44.740Z,102180.00
2023-02-04T12:42:12.086Z,102178.00
2023-02-04T12:44:40.186Z,102170.00
2023-02-04T12:47:07.478Z,102180.00
2023-02-04T12:49:34.943Z,102184.00
2023-02-04T12:52:02.765Z,102178.00
2023-02-04T12:54:30.119Z,102186.00
2023-02-04T12:56:58.285Z,102178.00
2023-02-04T12:59:25.707Z,102179.00
2023-02-04T13:01:54.017Z,102183.00
2023-02-04T13:04:21.400Z,102181.00
2023-02-04T13:06:48.705Z,102175.00
2023-02-04T13:09:16.033Z,102187.00
2023-02-04T13:11:43.458Z,102184.00
2023-02-04T13:14:10.778Z,102189.00
2023-02-04T13:16:38.066Z,102189.00
2023-02-04T13:19:06.178Z,102194.00
2023-02-04T13:21:33.464Z,102184.00
2023-02-04T13:24:00.759Z,102194.00
2023-02-04T13:26:28.052Z,102196.00
2023-02-04T13:28:55.313Z,102190.00
2023-02-04T13:31:22.662Z,102191.00
2023-02-04T13:33:50.066Z,102197.00
2023-02-04T13:36:18.265Z,102184.00
2023-02-04T13:38:45.549Z,102194.00
2023-02-04T13:41:12.881Z,102200.00
2023-02-04T13:43:40.153Z,102197.00
2023-02-04T13:46:07.600Z,102201.00
2023-02-04T13:48:36.596Z,102204.00
2023-02-04T13:51:04.300Z,102209.00
2023-02-04T13:53:32.313Z,102202.00
2023-02-04T13:56:00.749Z,102205.00
2023-02-04T13:58:28.049Z,102198.00
2023-02-04T14:00:56.785Z,102208.00
2023-02-04T14:03:24.371Z,102207.00
2023-02-04T14:05:51.813Z,102203.00
2023-02-04T14:08:19.195Z,102204.00
2023-02-04T14:10:47.692Z,102203.00
2023-02-04T14:13:15.274Z,102208.00
2023-02-04T14:15:42.602Z,102201.00
2023-02-04T14:18:10.776Z,102206.00
2023-02-04T14:20:38.462Z,102203.00
2023-02-04T14:23:06.187Z,102198.00
2023-02-04T14:25:33.567Z,102204.00
2023-02-04T14:28:01.723Z,102213.00
2023-02-04T14:30:30.421Z,102205.00
2023-02-04T14:32:58.220Z,102209.00
2023-02-04T14:35:26.102Z,102220.00
2023-02-04T14:37:53.484Z,102209.00
2023-02-04T14:40:21.469Z,102212.00
2023-02-04T14:42:48.889Z,102208.00
2023-02-04T14:45:17.000Z,102211.00
2023-02-04T14:47:44.373Z,102207.00
2023-02-04T14:50:14.262Z,102218.00
2023-02-04T14:52:41.963Z,102211.00
2023-02-04T14:55:11.507Z,102211.00
2023-02-04T14:57:38.888Z,102199.00
2023-02-04T15:00:07.585Z,102206.00
2023-02-04T15:02:35.720Z,102207.00
2023-02-04T15:05:03.578Z,102206.00
2023-02-04T15:07:30.932Z,102210.00
2023-02-04T15:09:58.171Z,102204.00
2023-02-04T15:12:25.447Z,102212.00
2023-02-04T15:14:52.755Z,102218.00
2023-02-04T15:17:20.100Z,102224.00
2023-02-04T15:19:48.162Z,102219.00
2023-02-04T15:22:15.779Z,102213.00
2023-02-04T15:24:43.990Z,102211.00
2023-02-04T15:27:11.667Z,102211.00
2023-02-04T15:29:39.070Z,102209.00
2023-02-04T15:32:06.496Z,102220.00
2023-02-04T15:34:34.191Z,102224.00
2023-02-04T15:37:02.341Z,102228.00
2023-02-04T15:39:29.699Z,102219.00
2023-02-04T15:41:56.991Z,102226.00
2023-02-04T15:44:25.966Z,102216.00
2023-02-04T15:46:53.982Z,102217.00
2023-02-04T15:49:21.416Z,102227.00
2023-02-04T15:51:48.776Z,102222.00
2023-02-04T15:54:17.116Z,102222.00
2023-02-04T15:56:44.619Z,102226.00
2023-02-04T15:59:11.993Z,102231.00
2023-02-04T16:01:39.342Z,102229.00
2023-02-04T16:04:06.669Z,102232.00
2023-02-04T16:06:33.928Z,102245.00
2023-02-04T16:09:01.285Z,102245.00
2023-02-04T16:11:29.375Z,102240.00
2023-02-04T16:13:57.992Z,102242.00
2023-02-04T16:16:25.472Z,102247.00
2023-02-04T16:18:52.854Z,102251.00
2023-02-04T16:21:20.102Z,102249.00
2023-02-04T16:23:47.471Z,102251.00
2023-02-04T16:26:14.826Z,102258.00
2023-02-04T16:28:46.606Z,102248.00
2023-02-04T16:31:14.336Z,102255.00
2023-02-04T16:33:41.861Z,102267.00
2023-02-04T16:36:12.126Z,102256.00
2023-02-04T16:38:42.073Z,102271.00
2023-02-04T16:41:09.979Z,102267.00
2023-02-04T16:43:37.361Z,102264.00
2023-02-04T16:46:05.776Z,102270.00
2023-02-04T16:48:33.387Z,102264.00
2023-02-04T16:51:00.825Z,102283.00
2023-02-04T16:53:28.187Z,102279.00
2023-02-04T16:55:55.463Z,102288.00
2023-02-04T16:58:22.847Z,102278.00
2023-02-04T17:00:50.433Z,102291.00
2023-02-04T17:03:18.472Z,102283.00
2023-02-04T17:05:45.727Z,102285.00
2023-02-04T17:08:14.362Z,102292.00
2023-02-04T17:10:59.819Z,102282.00
2023-02-04T17:13:27.234Z,102293.00
2023-02-04T17:15:59.682Z,102280.00
2023-02-04T17:18:28.502Z,102292.00
2023-02-04T17:20:56.000Z,102297.00
2023-02-04T17:23:23.665Z,102298.00
2023-02-04T17:25:51.070Z,102307.00
2023-02-04T17:28:18.524Z,102309.00
2023-02-04T17:30:45.992Z,102299.00
2023-02-04T17:33:15.690Z,102315.00
2023-02-04T17:35:43.761Z,102314.00
2023-02-04T17:38:11.058Z,102305.00
2023-02-04T17:40:38.417Z,102306.00
2023-02-04T17:43:06.762Z,102313.00
2023-02-04T17:45:35.094Z,102318.00
2023-02-04T17:48:04.340Z,102308.00
2023-02-04T17:50:33.955Z,102318.00
2023-02-04T17:53:01.918Z,102318.00
2023-02-04T17:55:33.601Z,102302.00
2023-02-04T17:58:07.131Z,102317.00
2023-02-04T18:00:34.968Z,102313.00
2023-02-04T18:03:02.607Z,102307.00
2023-02-04T18:05:30.646Z,102311.00
2023-02-04T18:08:05.269Z,102315.00
2023-02-04T18:10:35.511Z,102318.00
2023-02-04T18:13:11.500Z,102307.00
2023-02-04T18:15:39.148Z,102315.00
2023-02-04T18:18:23.195Z,102317.00
2023-02-04T18:20:58.857Z,102314.00
2023-02-04T18:23:29.177Z,102315.00
2023-02-04T18:26:01.871Z,102316.00
2023-02-04T18:28:29.216Z,102310.00
2023-02-04T18:30:59.980Z,102322.00
2023-02-04T18:33:27.744Z,102309.00
2023-02-04T18:36:00.587Z,102317.00
2023-02-04T18:38:33.726Z,102317.00
2023-02-04T18:41:20.028Z,102319.00
2023-02-04T18:43:50.419Z,102310.00
2023-02-04T18:46:25.197Z,102316.00
2023-02-04T18:49:05.098Z,102312.00
2023-02-04T18:51:38.933Z,102312.00
2023-02-04T18:54:38.029Z,102311.00
2023-02-04T18:57:31.032Z,102312.00
2023-02-04T19:00:31.867Z,102307.00
2023-02-04T19:03:14.575Z,102303.00
2023-02-04T19:05:48.886Z,102307.00
2023-02-04T19:08:26.907Z,102321.00
2023-02-04T19:10:56.285Z,102317.00
2023-02-04T19:13:26.697Z,102314.00
2023-02-04T19:15:59.127Z,102320.00
2023-02-04T19:18:31.444Z,102311.00
2023-02-04T19:21:13.744Z,102319.00
2023-02-04T19:23:41.044Z,102315.00
2023-02-04T19:26:28.793Z,102327.00
2023-02-04T19:28:56.433Z,102328.00
2023-02-04T19:31:27.452Z,102328.00
2023-02-04T19:33:54.821Z,102321.00
2023-02-04T19:36:36.424Z,102331.00
2023-02-04T19:39:13.148Z,102324.00
2023-02-04T19:41:48.299Z,102339.00
2023-02-04T19:44:42.137Z,102342.00
2023-02-04T19:47:24.633Z,102345.00
2023-02-04T19:49:57.008Z,102346.00
2023-02-04T19:52:34.552Z,102342.00
2023-02-04T19:55:26.433Z,102343.00
2023-02-04T19:57:58.117Z,102343.00
2023-02-04T20:00:47.497Z,102356.00
2023-02-04T20:03:36.078Z,102347.00
2023-02-04T20:06:26.801Z,102361.00
2023-02-04T20:08:59.639Z,102350.00
2023-02-04T20:11:38.950Z,102356.00
2023-02-04T20:14:37.049Z,102364.00
2023-02-04T20:17:14.761Z,102365.00
2023-02-04T20:19:43.643Z,102376.00
2023-02-04T20:22:42.550Z,102381.00
2023-02-04T20:27:47.863Z,102401.00
2023-02-04T20:30:27.678Z,102407.00
2023-02-04T20:32:56.665Z,102413.00
2023-02-04T20:36:17.711Z,102415.00
2023-02-04T20:38:46.056Z,102423.00
2023-02-04T20:41:20.039Z,102426.00
2023-02-04T20:43:49.507Z,102425.00
2023-02-04T20:46:22.937Z,102409.00
2023-02-04T20:48:50.816Z,102415.00
2023-02-04T20:51:23.412Z,102419.00
2023-02-04T20:53:52.624Z,102419.00
2023-02-04T20:56:24.512Z,102417.00
2023-02-04T20:58:54.243Z,102413.00
2023-02-04T21:01:29.371Z,102412.00
2023-02-04T21:03:57.870Z,102421.00
2023-02-04T21:07:41.097Z,102431.00
2023-02-04T21:10:10.828Z,102441.00
2023-02-04T21:12:42.140Z,102438.00
2023-02-04T21:15:10.775Z,102446.00
2023-02-04T21:18:29.576Z,102442.00
2023-02-04T21:20:57.909Z,102441.00
2023-02-04T21:23:28.323Z,102442.00
2023-02-04T21:25:55.820Z,102450.00
2023-02-04T21:28:52.091Z,102452.00
2023-02-04T21:31:22.495Z,102445.00
2023-02-04T21:33:50.156Z,102447.00
2023-02-04T21:36:18.498Z,102446.00
2023-02-04T21:38:48.632Z,102463.00
2023-02-04T21:41:37.404Z,102457.00
2023-02-04T21:44:07.708Z,102458.00
2023-02-04T21:46:38.211Z,102451.00
2023-02-04T21:49:05.668Z,102458.00
2023-02-04T21:51:33.697Z,102463.00
2023-02-04T21:54:06.836Z,102441.00
2023-02-04T21:56:48.709Z,102446.00
2023-02-04T21:59:51.425Z,102455.00
2023-02-04T22:02:18.757Z,102447.00
2023-02-04T22:04:54.988Z,102451.00
2023-02-04T22:07:31.684Z,102457.00
2023-02-04T22:09:59.000Z,102450.00
2023-02-04T22:12:26.484Z,102452.00
2023-02-04T22:14:53.705Z,102461.00
2023-02-04T22:17:30.909Z,102470.00
2023-02-04T22:20:00.956Z,102458.00
2023-02-04T22:22:33.178Z,102462.00
2023-02-04T22:25:04.835Z,102460.00
2023-02-04T22:27:38.084Z,102471.00
2023-02-04T22:30:42.114Z,102474.00
2023-02-04T22:33:20.835Z,102479.00
2023-02-04T22:35:50.838Z,102472.00
2023-02-04T22:38:20.633Z,102475.00
2023-02-04T22:40:47.936Z,102476.00
2023-02-04T22:43:15.398Z,102478.00
2023-02-04T22:45:51.044Z,102478.00
2023-02-04T22:48:18.373Z,102474.00
2023-02-04T22:53:36.895Z,102462.00
2023-02-04T22:56:04.590Z,102455.00
2023-02-04T22:58:31.816Z,102466.00
2023-02-04T23:00:59.188Z,102459.00
2023-02-04T23:03:26.498Z,102466.00
2023-02-04T23:05:53.863Z,102467.00
2023-02-04T23:08:29.085Z,102468.00
2023-02-04T23:10:57.189Z,102467.00
2023-02-04T23:13:26.836Z,102466.00
2023-02-04T23:15:54.204Z,102466.00
2023-02-04T23:18:21.462Z,102476.00
2023-02-04T23:20:48.817Z,102482.00
2023-02-04T23:23:17.794Z,102472.00
2023-02-04T23:25:45.804Z,102478.00
2023-02-04T23:28:14.248Z,102481.00
2023-02-04T23:30:41.749Z,102485.00
2023-02-04T23:33:10.189Z,102487.00
2023-02-04T23:35:37.452Z,102489.00
2023-02-04T23:38:04.730Z,102490.00
2023-02-04T23:40:32.307Z,102491.00
2023-02-04T23:42:59.573Z,102492.00
2023-02-04T23:45:27.604Z,102489.00
2023-02-04T23:47:54.909Z,102491.00
2023-02-04T23:50:22.154Z,102482.00
2023-02-04T23:52:49.396Z,102479.00
2023-02-04T23:55:18.398Z,102480.00
2023-02-04T23:57:48.815Z,102479.00
